Time;durP1;ratioP1;P1;durP2;ratioP2;P2;SDS_P1;SDS_P2;PMS_P1;PMS_P2;Temp;Humidity;BMP_temperature;BMP_pressure;BME280_temperature;BME280_humidity;BME280_pressure;Samples;Min_cycle;Max_cycle;Signal;HPM_P1;HPM_P2
2023/05/02 00:00:12;;;;;;;30.55;21.80;;;;;;;9.51;100.00;101959.44;4973777;28;20122;-42
2023/05/02 00:02:37;;;;;;;29.38;20.98;;;;;;;9.81;100.00;102008.19;4972533;28;20026;-44
2023/05/02 00:05:04;;;;;;;28.80;20.58;;;;;;;9.78;100.00;101990.69;4972785;28;20049;-42
2023/05/02 00:07:29;;;;;;;27.77;19.58;;;;;;;9.88;100.00;102002.84;4972140;28;20117;-42
2023/05/02 00:09:54;;;;;;;26.17;18.33;;;;;;;9.91;100.00;102018.59;4972993;28;20154;-44
2023/05/02 00:12:20;;;;;;;21.58;14.43;;;;;;;9.89;100.00;102030.91;4972473;28;20039;-42
2023/05/02 00:14:45;;;;;;;20.90;12.77;;;;;;;9.56;100.00;101955.88;4973447;28;20035;-43
2023/05/02 00:17:18;;;;;;;15.52;11.85;;;;;;;9.88;100.00;101987.06;4973554;28;20085;-43
2023/05/02 00:19:43;;;;;;;15.10;11.18;;;;;;;9.69;100.00;101969.75;4973430;28;20363;-42
2023/05/02 00:22:09;;;;;;;20.15;10.52;;;;;;;10.02;100.00;102018.47;4972342;28;20106;-45
2023/05/02 00:24:35;;;;;;;15.20;9.40;;;;;;;10.04;100.00;102021.97;4972412;28;20398;-44
2023/05/02 00:27:00;;;;;;;15.35;8.68;;;;;;;10.07;100.00;102024.53;4973378;28;20081;-44
2023/05/02 00:29:26;;;;;;;13.50;9.27;;;;;;;10.07;100.00;102020.16;4973134;28;20046;-45
2023/05/02 00:31:51;;;;;;;10.07;7.30;;;;;;;10.11;100.00;102023.63;4972118;28;20105;-42
2023/05/02 00:34:16;;;;;;;13.18;7.47;;;;;;;10.10;100.00;102022.75;4973077;28;20467;-43
2023/05/02 00:36:42;;;;;;;13.20;7.43;;;;;;;10.01;100.00;101993.91;4972206;28;20062;-44
2023/05/02 00:39:07;;;;;;;10.63;7.60;;;;;;;9.81;100.00;101963.47;4971896;28;20074;-44
2023/05/02 00:41:32;;;;;;;17.75;8.73;;;;;;;10.09;100.00;102012.25;4972246;28;20050;-42
2023/05/02 00:43:58;;;;;;;15.55;8.20;;;;;;;10.10;100.00;102020.13;4973264;28;20035;-45
2023/05/02 00:46:23;;;;;;;15.13;7.38;;;;;;;10.01;100.00;102014.13;4973046;28;20170;-45
2023/05/02 00:48:49;;;;;;;13.13;7.25;;;;;;;10.00;100.00;102020.25;4973012;28;20041;-42
2023/05/02 00:51:14;;;;;;;16.33;7.45;;;;;;;10.05;100.00;102021.06;4973154;28;20039;-48
2023/05/02 00:53:40;;;;;;;19.63;8.07;;;;;;;9.79;100.00;101984.53;4973055;28;20534;-42
2023/05/02 00:56:07;;;;;;;12.55;6.55;;;;;;;10.05;100.00;102034.22;4970830;28;20454;-43
2023/05/02 00:58:33;;;;;;;13.35;6.07;;;;;;;9.71;100.00;101998.66;4972000;28;20043;-45
2023/05/02 01:01:36;;;;;;;13.27;5.60;;;;;;;9.80;100.00;102045.91;4972822;28;20038;-45
2023/05/02 01:04:46;;;;;;;14.75;5.20;;;;;;;9.74;100.00;102052.09;4972796;28;20035;-42
2023/05/02 01:07:26;;;;;;;8.45;4.88;;;;;;;9.74;100.00;102051.22;4926157;28;20047;-43
2023/05/02 01:10:19;;;;;;;16.90;4.47;;;;;;;9.76;100.00;102044.19;4972863;28;20039;-43
2023/05/02 01:12:49;;;;;;;11.77;5.13;;;;;;;9.65;100.00;102054.81;4972105;28;20066;-44
2023/05/02 01:15:18;;;;;;;7.88;3.58;;;;;;;9.39;100.00;102001.59;4972868;28;20038;-44
2023/05/02 01:17:44;;;;;;;8.85;3.75;;;;;;;9.71;100.00;102059.13;4971580;28;20035;-42
2023/05/02 01:20:17;;;;;;;14.38;4.15;;;;;;;9.76;100.00;102047.69;4976417;28;20113;-44
2023/05/02 01:22:43;;;;;;;12.65;4.07;;;;;;;9.77;100.00;102061.72;4974962;28;20034;-45
2023/05/02 01:25:11;;;;;;;13.60;4.35;;;;;;;9.75;100.00;102061.69;4976496;28;20109;-45
2023/05/02 01:28:19;;;;;;;11.57;4.30;;;;;;;9.75;100.00;102051.19;4975218;28;20066;-44
2023/05/02 01:30:46;;;;;;;12.18;4.72;;;;;;;9.78;100.00;102069.56;4976069;28;20035;-45
2023/05/02 01:33:13;;;;;;;12.93;4.80;;;;;;;9.36;100.00;101996.38;4975897;28;20367;-41
2023/05/02 01:35:39;;;;;;;15.10;4.32;;;;;;;9.35;100.00;102026.16;4974939;28;20462;-44
2023/05/02 01:38:05;;;;;;;16.90;4.68;;;;;;;9.61;100.00;102079.38;4974923;28;20069;-41
2023/05/02 01:40:32;;;;;;;14.60;4.63;;;;;;;9.34;100.00;102030.53;4974786;28;20380;-45
2023/05/02 01:42:58;;;;;;;16.40;4.72;;;;;;;9.67;100.00;102081.06;4989966;28;20055;-44
2023/05/02 01:45:24;;;;;;;15.02;4.28;;;;;;;9.30;100.00;102018.31;4975647;28;20051;-44
2023/05/02 01:47:50;;;;;;;13.10;5.18;;;;;;;9.32;100.00;102026.19;4974779;28;20118;-44
2023/05/02 01:50:19;;;;;;;14.90;5.35;;;;;;;9.42;100.00;102039.25;4975859;28;20066;-46
2023/05/02 01:52:46;;;;;;;11.85;4.28;;;;;;;9.65;100.00;102091.63;4974425;28;20034;-43
2023/05/02 01:55:14;;;;;;;12.18;3.85;;;;;;;9.57;100.00;102075.88;4975660;28;20398;-44
2023/05/02 01:57:41;;;;;;;12.15;3.88;;;;;;;9.27;100.00;102025.34;4974363;28;20066;-44
2023/05/02 02:00:08;;;;;;;9.82;4.18;;;;;;;9.60;100.00;102088.16;4974401;28;20043;-44
2023/05/02 02:02:34;;;;;;;13.52;4.20;;;;;;;9.64;100.00;102105.63;4973328;28;20027;-42
2023/05/02 02:05:02;;;;;;;7.95;3.20;;;;;;;9.28;100.00;102048.97;4974472;28;20093;-44
2023/05/02 02:07:27;;;;;;;9.00;3.03;;;;;;;9.48;100.00;102101.41;4974363;28;20031;-45
2023/05/02 02:09:53;;;;;;;8.82;3.10;;;;;;;9.26;100.00;102070.91;4975279;28;20050;-46
2023/05/02 02:12:34;;;;;;;4.65;2.45;;;;;;;9.31;100.00;102088.38;4974083;28;20505;-45
2023/05/02 02:15:07;;;;;;;12.35;3.40;;;;;;;9.21;100.00;102081.44;4975162;28;20483;-47
2023/05/02 02:17:38;;;;;;;11.65;3.00;;;;;;;9.44;100.00;102139.09;4975430;28;20085;-45
2023/05/02 02:20:06;;;;;;;5.05;2.05;;;;;;;9.06;100.00;102097.31;4972988;28;20533;-41
2023/05/02 02:22:35;;;;;;;7.57;2.35;;;;;;;9.28;100.00;102138.31;4975306;28;20030;-44
2023/05/02 02:25:02;;;;;;;3.65;1.95;;;;;;;9.28;100.00;102140.94;4973988;28;20062;-43
2023/05/02 02:27:28;;;;;;;7.13;2.10;;;;;;;8.92;100.00;102079.03;4975005;28;20038;-41
2023/05/02 02:29:53;;;;;;;10.40;2.55;;;;;;;8.93;100.00;102079.91;4973824;28;20035;-45
2023/05/02 02:32:18;;;;;;;10.25;2.72;;;;;;;9.28;100.00;102145.34;4974910;28;20030;-43
2023/05/02 02:34:44;;;;;;;6.00;2.10;;;;;;;8.99;100.00;102112.22;4974123;28;20038;-43
2023/05/02 02:37:19;;;;;;;10.73;2.25;;;;;;;9.03;100.00;102115.72;4974694;28;20487;-45
2023/05/02 02:40:08;;;;;;;9.00;2.40;;;;;;;9.18;100.00;102156.78;4973470;28;20039;-44
2023/05/02 02:43:03;;;;;;;7.70;2.22;;;;;;;9.24;100.00;102159.38;4973768;28;20031;-43
2023/05/02 02:45:39;;;;;;;8.20;1.90;;;;;;;9.09;100.00;102147.19;4973515;28;20113;-45
2023/05/02 02:48:30;;;;;;;8.45;2.20;;;;;;;9.17;100.00;102165.53;4973323;28;20035;-46
2023/05/02 02:51:02;;;;;;;5.30;1.92;;;;;;;8.77;100.00;102094.84;4974561;28;20114;-43
2023/05/02 02:53:53;;;;;;;8.73;2.17;;;;;;;9.18;100.00;102169.91;4973604;28;20034;-43
2023/05/02 02:56:26;;;;;;;6.55;1.80;;;;;;;9.16;100.00;102167.31;4974067;28;20125;-45
2023/05/02 02:59:04;;;;;;;3.72;1.30;;;;;;;8.99;100.00;102146.38;4972856;28;20039;-43
2023/05/02 03:01:31;;;;;;;6.13;1.67;;;;;;;9.17;100.00;102187.41;4974534;28;20022;-46
2023/05/02 03:03:57;;;;;;;9.52;2.47;;;;;;;9.19;100.00;102180.44;4973151;28;20041;-43
2023/05/02 03:06:23;;;;;;;7.05;2.00;;;;;;;8.93;100.00;102153.41;4974532;28;20405;-41
2023/05/02 03:08:49;;;;;;;5.18;1.48;;;;;;;8.77;100.00;102117.59;4973262;28;20125;-46
2023/05/02 03:11:15;;;;;;;3.88;1.65;;;;;;;9.11;100.00;102174.31;4974356;28;20051;-44
2023/05/02 03:13:40;;;;;;;5.93;1.88;;;;;;;9.15;100.00;102197.06;4974443;28;20042;-43
2023/05/02 03:16:27;;;;;;;6.32;1.95;;;;;;;9.13;100.00;102190.97;4974243;28;20039;-44
2023/05/02 03:18:52;;;;;;;5.63;2.33;;;;;;;9.16;100.00;102197.94;4974105;28;20109;-43
2023/05/02 03:21:18;;;;;;;8.30;1.98;;;;;;;9.11;100.00;102200.59;4974036;28;20562;-43
2023/05/02 03:23:43;;;;;;;5.40;1.98;;;;;;;8.70;100.00;102135.13;4973884;28;20114;-43
2023/05/02 03:26:08;;;;;;;11.05;2.20;;;;;;;9.03;100.00;102199.75;4973153;28;20122;-42
2023/05/02 03:28:34;;;;;;;10.90;3.25;;;;;;;8.75;100.00;102171.88;4974218;28;20031;-41
2023/05/02 03:30:59;;;;;;;7.97;2.28;;;;;;;9.04;100.00;102220.78;4974011;28;20066;-44
2023/05/02 03:33:24;;;;;;;6.03;2.05;;;;;;;8.93;100.00;102204.16;4972805;28;20039;-42
2023/05/02 03:35:50;;;;;;;6.90;2.50;;;;;;;8.69;100.00;102164.91;4973888;28;20038;-44
2023/05/02 03:38:15;;;;;;;8.70;2.50;;;;;;;8.39;100.00;102129.13;4973671;28;20038;-41
2023/05/02 03:40:40;;;;;;;5.60;2.17;;;;;;;8.89;100.00;102228.72;4973547;28;20049;-41
2023/05/02 03:43:06;;;;;;;9.13;2.17;;;;;;;8.61;100.00;102169.28;4972852;28;20117;-42
2023/05/02 03:45:31;;;;;;;7.57;2.33;;;;;;;8.57;100.00;102169.31;4973992;28;20066;-44
2023/05/02 03:47:56;;;;;;;7.18;2.05;;;;;;;8.87;100.00;102235.69;4973800;28;20125;-41
2023/05/02 03:50:22;;;;;;;3.88;1.60;;;;;;;8.93;100.00;102242.72;4973817;28;20122;-43
2023/05/02 03:52:47;;;;;;;5.30;2.17;;;;;;;8.78;100.00;102227.88;4972340;28;20093;-43
2023/05/02 03:55:12;;;;;;;7.15;2.13;;;;;;;8.47;100.00;102171.06;4972366;28;20129;-44
2023/05/02 03:57:38;;;;;;;4.82;1.60;;;;;;;8.86;100.00;102246.22;4973829;28;20043;-42
2023/05/02 04:00:04;;;;;;;3.53;1.75;;;;;;;8.88;100.00;102247.06;4971887;28;20047;-45
2023/05/02 04:02:30;;;;;;;8.32;1.70;;;;;;;8.86;100.00;102254.97;4973930;28;20038;-43
2023/05/02 04:04:55;;;;;;;5.97;1.67;;;;;;;8.87;100.00;102271.59;4972320;28;20034;-42
2023/05/02 04:07:20;;;;;;;7.85;2.00;;;;;;;8.55;100.00;102203.44;4972305;28;20118;-45
2023/05/02 04:09:46;;;;;;;6.13;1.85;;;;;;;8.89;100.00;102257.59;4973458;28;20470;-44
2023/05/02 04:12:11;;;;;;;8.18;2.17;;;;;;;8.90;100.00;102254.06;4972095;28;20047;-43
2023/05/02 04:14:36;;;;;;;5.93;2.20;;;;;;;8.87;100.00;102259.31;4973550;28;20093;-42
2023/05/02 04:17:02;;;;;;;7.60;1.90;;;;;;;8.88;100.00;102275.97;4972426;28;20041;-41
2023/05/02 04:19:28;;;;;;;6.72;2.17;;;;;;;8.87;100.00;102275.09;4988385;28;20375;-42
2023/05/02 04:21:53;;;;;;;6.15;1.85;;;;;;;8.40;100.00;102203.47;4972175;28;20042;-42
2023/05/02 04:24:18;;;;;;;6.68;1.95;;;;;;;8.73;100.00;102274.25;4973613;28;20047;-45
2023/05/02 04:26:46;;;;;;;13.60;2.47;;;;;;;8.74;100.00;102277.75;4973602;28;20431;-43
2023/05/02 04:29:12;;;;;;;6.03;2.25;;;;;;;8.67;100.00;102269.00;4973206;28;20031;-44
2023/05/02 04:31:37;;;;;;;9.10;2.22;;;;;;;8.80;100.00;102288.25;4973247;28;20042;-43
2023/05/02 04:34:03;;;;;;;8.88;2.25;;;;;;;8.70;100.00;102271.63;4967787;28;20047;-44
2023/05/02 04:36:28;;;;;;;9.23;2.88;;;;;;;8.41;100.00;102234.06;4954336;28;20046;-44
2023/05/02 04:38:53;;;;;;;12.70;2.78;;;;;;;8.74;100.00;102291.75;4953750;28;20475;-43
2023/05/02 04:41:20;;;;;;;9.38;2.13;;;;;;;8.49;100.00;102250.69;4954103;28;20094;-44
2023/05/02 04:43:45;;;;;;;13.77;2.50;;;;;;;8.45;100.00;102249.81;4954061;28;20043;-44
2023/05/02 04:46:11;;;;;;;10.65;2.92;;;;;;;8.46;100.00;102255.94;4954186;28;20098;-43
2023/05/02 04:48:40;;;;;;;7.88;2.53;;;;;;;8.82;100.00;102317.97;4952533;29;20035;-45
2023/05/02 04:51:06;;;;;;;13.18;3.25;;;;;;;8.71;100.00;102304.00;4959787;28;20038;-43
2023/05/02 04:53:32;;;;;;;12.10;3.40;;;;;;;8.55;100.00;102270.78;4973130;28;20045;-44
2023/05/02 04:55:57;;;;;;;16.88;3.35;;;;;;;8.72;100.00;102305.75;4976701;28;20085;-41
2023/05/02 04:58:23;;;;;;;9.32;3.25;;;;;;;8.78;100.00;102332.91;4991847;28;20432;-44
2023/05/02 05:00:48;;;;;;;10.82;2.90;;;;;;;8.42;100.00;102264.69;4975679;28;20043;-44
2023/05/02 05:03:13;;;;;;;13.63;4.43;;;;;;;8.42;100.00;102252.44;4976745;28;20391;-43
2023/05/02 05:05:38;;;;;;;12.65;3.58;;;;;;;8.79;100.00;102329.38;4976634;28;20034;-45
2023/05/02 05:08:04;;;;;;;10.40;3.63;;;;;;;8.82;100.00;102342.50;4976421;28;20291;-42
2023/05/02 05:10:29;;;;;;;14.07;4.25;;;;;;;8.75;100.00;102330.28;4976396;28;20117;-41
2023/05/02 05:12:54;;;;;;;9.65;3.35;;;;;;;7.80;100.00;102165.00;4976477;28;20046;-45
2023/05/02 05:15:21;;;;;;;11.30;3.65;;;;;;;8.74;100.00;102351.25;4976631;28;20058;-43
2023/05/02 05:17:46;;;;;;;7.00;2.80;;;;;;;8.77;100.00;102360.00;4976397;28;20473;-44
2023/05/02 05:20:12;;;;;;;8.13;2.90;;;;;;;8.29;100.00;102290.03;4975419;28;20501;-42
2023/05/02 05:22:38;;;;;;;17.88;3.28;;;;;;;8.33;100.00;102301.41;4976205;28;20066;-44
2023/05/02 05:25:04;;;;;;;11.38;3.55;;;;;;;8.28;100.00;102305.78;4975087;28;20029;-44
2023/05/02 05:27:30;;;;;;;7.30;2.40;;;;;;;8.30;100.00;102311.91;4976238;28;20038;-46
2023/05/02 05:29:55;;;;;;;6.97;2.92;;;;;;;8.71;100.00;102383.63;4976252;28;20058;-45
2023/05/02 05:32:20;;;;;;;10.32;3.17;;;;;;;8.78;100.00;102376.66;4976231;28;20044;-44
2023/05/02 05:34:50;;;;;;;9.05;2.85;;;;;;;8.77;100.00;102377.50;4975103;28;20049;-42
2023/05/02 05:37:16;;;;;;;6.88;2.75;;;;;;;8.57;100.00;102314.53;4976271;28;20089;-44
2023/05/02 05:39:41;;;;;;;10.68;2.58;;;;;;;8.83;100.00;102386.25;4976041;28;20034;-44
2023/05/02 05:42:08;;;;;;;10.30;3.13;;;;;;;8.85;100.00;102396.75;4976008;28;20129;-44
2023/05/02 05:44:34;;;;;;;10.00;3.10;;;;;;;8.72;100.00;102387.16;4975997;28;20046;-42
2023/05/02 05:46:59;;;;;;;6.68;2.60;;;;;;;8.72;100.00;102388.03;4976181;28;20031;-43
2023/05/02 05:49:24;;;;;;;10.35;2.92;;;;;;;8.53;100.00;102335.50;4975846;28;20031;-42
2023/05/02 05:51:50;;;;;;;11.20;3.30;;;;;;;8.91;100.00;102409.88;4974780;28;20471;-44
2023/05/02 05:54:16;;;;;;;10.90;2.95;;;;;;;8.84;100.00;102393.25;4975899;28;20039;-43
2023/05/02 05:56:41;;;;;;;11.77;2.80;;;;;;;9.00;100.00;102418.63;4975795;28;20050;-41
2023/05/02 05:59:07;;;;;;;11.35;3.35;;;;;;;9.01;100.00;102430.91;4973945;28;20042;-43
2023/05/02 06:01:32;;;;;;;8.55;3.17;;;;;;;8.74;100.00;102378.38;4969705;28;20118;-45
2023/05/02 06:03:58;;;;;;;11.98;2.85;;;;;;;9.03;100.00;102442.28;4971670;28;20443;-43
2023/05/02 06:06:23;;;;;;;8.10;2.70;;;;;;;9.02;100.00;102434.38;4956428;28;20043;-43
2023/05/02 06:08:49;;;;;;;8.68;2.83;;;;;;;9.04;100.00;102446.66;4963709;28;20110;-44
2023/05/02 06:11:14;;;;;;;13.20;3.22;;;;;;;9.11;100.00;102451.91;4974114;28;20086;-42
2023/05/02 06:13:39;;;;;;;12.35;2.85;;;;;;;9.10;100.00;102453.66;4975236;28;20046;-43
2023/05/02 06:16:05;;;;;;;14.57;3.58;;;;;;;9.03;100.00;102451.91;4975231;28;20050;-43
2023/05/02 06:18:30;;;;;;;11.40;3.45;;;;;;;9.05;100.00;102465.91;4974363;28;20039;-44
2023/05/02 06:20:56;;;;;;;10.20;3.47;;;;;;;8.62;100.00;102399.38;4975370;28;20474;-45
2023/05/02 06:23:21;;;;;;;13.88;3.35;;;;;;;8.77;100.00;102435.28;4972755;28;20042;-43
2023/05/02 06:25:47;;;;;;;15.35;2.95;;;;;;;8.88;100.00;102483.41;4955679;28;20035;-45
2023/05/02 06:28:12;;;;;;;8.20;3.03;;;;;;;8.92;100.00;102472.94;4963043;28;20082;-44
2023/05/02 06:30:37;;;;;;;9.52;3.35;;;;;;;9.00;100.00;102468.53;4973295;28;20030;-45
2023/05/02 06:33:04;;;;;;;10.40;3.50;;;;;;;8.97;100.00;102483.41;4969622;28;20054;-43
2023/05/02 06:35:29;;;;;;;11.52;3.03;;;;;;;8.92;100.00;102472.03;4973494;28;20027;-44
2023/05/02 06:37:54;;;;;;;8.65;2.80;;;;;;;8.98;100.00;102479.94;4989854;28;20043;-44
2023/05/02 06:40:20;;;;;;;9.38;3.40;;;;;;;9.13;100.00;102493.06;4973653;28;20047;-45
2023/05/02 06:42:45;;;;;;;10.32;3.08;;;;;;;9.17;100.00;102496.53;4972703;28;20035;-44
2023/05/02 06:45:10;;;;;;;10.23;3.40;;;;;;;8.96;100.00;102431.78;4971635;28;20454;-43
2023/05/02 06:47:36;;;;;;;16.17;3.15;;;;;;;9.16;100.00;102466.78;4973570;28;20127;-44
2023/05/02 06:50:02;;;;;;;10.05;2.15;;;;;;;9.43;100.00;102493.03;4972317;28;20479;-46
2023/05/02 06:52:27;;;;;;;8.65;2.30;;;;;;;9.60;100.00;102512.25;4970974;28;20030;-43
2023/05/02 06:54:52;;;;;;;4.95;2.05;;;;;;;9.85;100.00;102515.72;4973978;28;20073;-43
2023/05/02 06:57:18;;;;;;;7.80;1.85;;;;;;;10.02;100.00;102518.28;4973694;28;20058;-43
2023/05/02 06:59:43;;;;;;;6.53;2.80;;;;;;;10.26;100.00;102525.25;4971098;28;20469;-47
2023/05/02 07:02:08;;;;;;;6.50;2.70;;;;;;;10.37;100.00;102532.22;4972717;28;20038;-42
2023/05/02 07:04:34;;;;;;;9.27;2.88;;;;;;;10.30;100.00;102485.78;4971722;28;20474;-45
2023/05/02 07:06:59;;;;;;;4.97;1.95;;;;;;;10.15;100.00;102473.56;4969780;28;20466;-42
2023/05/02 07:09:24;;;;;;;11.90;3.03;;;;;;;10.15;100.00;102527.94;4955871;28;20490;-42
2023/05/02 07:11:50;;;;;;;9.23;2.45;;;;;;;9.98;100.00;102550.78;4971402;28;20081;-43
2023/05/02 07:14:15;;;;;;;4.97;2.30;;;;;;;9.40;100.00;102477.25;4974132;28;20035;-42
2023/05/02 07:16:40;;;;;;;6.78;2.30;;;;;;;9.28;100.00;102479.03;4972228;28;20125;-43
2023/05/02 07:19:05;;;;;;;10.20;2.67;;;;;;;9.08;100.00;102504.44;4974115;28;20043;-43
2023/05/02 07:21:31;;;;;;;8.23;2.08;;;;;;;9.32;100.00;102544.72;4973700;28;20047;-41
2023/05/02 07:23:56;;;;;;;5.88;1.95;;;;;;;9.34;100.00;102537.69;4973446;28;20039;-42
2023/05/02 07:26:22;;;;;;;7.18;2.42;;;;;;;9.09;100.00;102487.78;4974079;28;20342;-44
2023/05/02 07:28:48;;;;;;;4.55;2.00;;;;;;;9.54;100.00;102553.47;4974052;28;20034;-40
2023/05/02 07:31:13;;;;;;;6.45;1.75;;;;;;;9.13;100.00;102479.06;4968473;28;20504;-45
2023/05/02 07:33:38;;;;;;;5.90;2.28;;;;;;;9.72;100.00;102561.31;4968684;28;20039;-44
2023/05/02 07:36:04;;;;;;;7.82;2.10;;;;;;;9.86;100.00;102563.94;4954693;28;20053;-43
2023/05/02 07:38:29;;;;;;;12.57;2.53;;;;;;;10.04;100.00;102577.06;4953607;28;20031;-42
2023/05/02 07:40:59;;;;;;;10.65;2.25;;;;;;;10.11;100.00;102565.63;4973218;28;20041;-42
2023/05/02 07:43:25;;;;;;;8.85;2.20;;;;;;;10.16;100.00;102551.59;4972542;28;20043;-44
2023/05/02 07:45:51;;;;;;;9.80;2.72;;;;;;;10.38;100.00;102562.94;4972563;28;20089;-44
2023/05/02 07:48:16;;;;;;;7.35;2.20;;;;;;;10.65;100.00;102548.75;4973759;28;20039;-44
2023/05/02 07:50:41;;;;;;;6.00;2.17;;;;;;;10.93;100.00;102581.06;4972887;28;20041;-42
2023/05/02 07:53:07;;;;;;;7.72;2.40;;;;;;;10.97;100.00;102594.25;4973828;28;20073;-42
2023/05/02 07:55:32;;;;;;;6.68;1.90;;;;;;;11.02;100.00;102587.16;4973631;28;20041;-43
2023/05/02 07:57:58;;;;;;;5.53;2.10;;;;;;;11.43;100.00;102588.63;4972786;28;20039;-43
2023/05/02 08:00:23;;;;;;;4.38;1.85;;;;;;;11.71;100.00;102530.34;4972378;28;20045;-41
2023/05/02 08:02:48;;;;;;;6.28;2.03;;;;;;;11.57;100.00;102579.69;4987451;28;20027;-43
2023/05/02 08:05:14;;;;;;;6.45;2.38;;;;;;;11.37;100.00;102610.63;4971900;28;20043;-43
2023/05/02 08:07:39;;;;;;;7.53;1.55;;;;;;;11.13;100.00;102608.16;4971609;28;20489;-42
2023/05/02 08:10:05;;;;;;;4.88;1.45;;;;;;;10.65;100.00;102607.56;4973498;28;20375;-43
2023/05/02 08:12:31;;;;;;;4.38;1.55;;;;;;;10.89;100.00;102585.47;4972205;28;20066;-45
2023/05/02 08:14:56;;;;;;;2.70;1.42;;;;;;;11.88;100.00;102604.06;4970879;28;20039;-44
2023/05/02 08:17:22;;;;;;;3.63;1.40;;;;;;;12.82;100.00;102597.66;4971346;28;20050;-47
2023/05/02 08:19:47;;;;;;;5.00;1.67;;;;;;;12.85;100.00;102626.69;4971943;28;20043;-44
2023/05/02 08:22:12;;;;;;;2.00;1.10;;;;;;;12.36;100.00;102621.16;4973190;28;20170;-42
2023/05/02 08:24:38;;;;;;;4.03;1.50;;;;;;;12.31;100.00;102633.53;4971813;28;20348;-42
2023/05/02 08:27:03;;;;;;;6.10;1.70;;;;;;;12.68;100.00;102576.72;4972903;28;20075;-45
2023/05/02 08:29:29;;;;;;;3.17;1.20;;;;;;;13.41;100.00;102624.13;4977522;28;20390;-45
2023/05/02 08:31:55;;;;;;;4.53;1.55;;;;;;;13.96;100.00;102588.78;4973366;28;20391;-44
2023/05/02 08:34:20;;;;;;;6.20;1.50;;;;;;;14.18;100.00;102639.56;4956813;29;20041;-43
2023/05/02 08:36:46;;;;;;;2.13;1.25;;;;;;;14.04;100.00;102618.63;4958087;28;20066;-46
2023/05/02 08:39:11;;;;;;;4.53;1.27;;;;;;;13.67;100.00;102565.47;4975996;28;20453;-45
2023/05/02 08:41:37;;;;;;;1.92;1.20;;;;;;;14.12;100.00;102650.28;4976089;28;20066;-44
2023/05/02 08:44:03;;;;;;;4.50;1.60;;;;;;;14.40;100.00;102602.06;4975863;28;20126;-45
2023/05/02 08:46:29;;;;;;;3.38;1.20;;;;;;;15.36;100.00;102639.69;4975432;28;20492;-43
2023/05/02 08:48:57;;;;;;;5.43;1.40;;;;;;;14.69;100.00;102605.88;4976723;28;20041;-43
2023/05/02 08:51:23;;;;;;;7.63;1.73;;;;;;;15.15;100.00;102647.25;4975642;28;20081;-49
2023/05/02 08:53:49;;;;;;;6.38;1.67;;;;;;;15.50;100.00;102635.84;4976879;28;20030;-45
2023/05/02 08:56:15;;;;;;;3.65;1.33;;;;;;;15.77;100.00;102615.69;4971212;28;20080;-44
2023/05/02 08:58:40;;;;;;;5.95;1.67;;;;;;;15.27;97.50;102592.16;4957559;28;20046;-43
2023/05/02 09:01:13;;;;;;;5.25;1.30;;;;;;;15.56;100.00;102650.75;4957423;28;20050;-44
2023/05/02 09:03:46;;;;;;;3.83;1.30;;;;;;;15.89;100.00;102657.88;4971661;28;20055;-44
2023/05/02 09:06:16;;;;;;;3.03;1.48;;;;;;;16.59;100.00;102616.13;4957475;28;20031;-47
2023/05/02 09:08:43;;;;;;;2.35;1.30;;;;;;;16.46;99.99;102651.91;4965506;28;20027;-43
2023/05/02 09:11:10;;;;;;;4.72;1.25;;;;;;;16.09;92.67;102605.09;4989738;28;20411;-46
2023/05/02 09:13:49;;;;;;;3.30;1.63;;;;;;;15.35;95.68;102662.72;4971104;28;20113;-45
2023/05/02 09:16:22;;;;;;;4.45;1.55;;;;;;;13.93;100.00;102625.88;4961859;28;20047;-44
2023/05/02 09:18:49;;;;;;;5.57;1.77;;;;;;;13.53;100.00;102692.72;4971055;28;20473;-43
2023/05/02 09:21:15;;;;;;;4.60;1.42;;;;;;;13.48;100.00;102677.81;4973822;28;20039;-43
2023/05/02 09:23:46;;;;;;;4.30;1.65;;;;;;;12.48;100.00;102628.06;4975149;28;20038;-43
2023/05/02 09:26:32;;;;;;;4.40;1.50;;;;;;;12.06;100.00;102614.44;4974129;28;20046;-43
2023/05/02 09:28:59;;;;;;;4.95;1.98;;;;;;;12.94;100.00;102676.78;4973652;28;20041;-43
2023/05/02 09:31:29;;;;;;;3.80;1.70;;;;;;;13.54;100.00;102645.97;4958708;28;20044;-45
2023/05/02 09:33:54;;;;;;;4.82;1.42;;;;;;;14.71;100.00;102670.34;4975509;28;20114;-43
2023/05/02 09:36:20;;;;;;;4.45;1.40;;;;;;;14.91;100.00;102673.44;4972740;28;20523;-45
2023/05/02 09:38:50;;;;;;;5.13;1.30;;;;;;;14.78;100.00;102680.78;4972006;28;20039;-42
2023/05/02 09:41:18;;;;;;;3.92;1.65;;;;;;;15.93;100.00;102675.50;4975000;28;20406;-43
2023/05/02 09:43:54;;;;;;;5.05;1.60;;;;;;;16.08;100.00;102639.69;4973912;28;20041;-46
2023/05/02 09:46:19;;;;;;;4.05;1.70;;;;;;;15.04;95.99;102640.44;4974156;28;20038;-43
2023/05/02 09:48:55;;;;;;;3.13;1.70;;;;;;;16.13;96.67;102706.84;4973810;28;20031;-44
2023/05/02 09:51:22;;;;;;;4.95;1.70;;;;;;;16.82;95.17;102688.09;4959998;28;20042;-45
2023/05/02 09:53:48;;;;;;;5.38;3.22;;;;;;;17.38;87.71;102681.94;4970706;28;20064;-42
2023/05/02 09:56:14;;;;;;;6.80;1.67;;;;;;;16.67;92.20;102697.41;4957520;28;20058;-42
2023/05/02 09:58:39;;;;;;;7.22;1.63;;;;;;;16.42;90.54;102704.28;4975557;28;20034;-42
2023/05/02 10:01:04;;;;;;;4.20;2.15;;;;;;;16.79;90.23;102645.66;4957493;28;20399;-42
2023/05/02 10:03:33;;;;;;;4.00;2.00;;;;;;;16.54;87.28;102674.75;4973237;28;20031;-45
2023/05/02 10:05:59;;;;;;;3.75;1.48;;;;;;;15.74;91.82;102650.28;4973310;28;20050;-45
2023/05/02 10:08:26;;;;;;;5.07;1.83;;;;;;;15.99;99.01;102704.56;4974293;28;20498;-44
2023/05/02 10:10:56;;;;;;;5.55;1.52;;;;;;;16.43;98.38;102706.03;4974384;28;20101;-45
2023/05/02 10:13:25;;;;;;;5.25;2.00;;;;;;;16.47;89.22;102705.03;4974254;28;20121;-44
2023/05/02 10:16:02;;;;;;;5.75;1.58;;;;;;;15.27;95.84;102638.13;4975009;28;20042;-46
2023/05/02 10:18:51;;;;;;;2.03;1.30;;;;;;;14.90;95.32;102711.47;4974076;28;20035;-46
2023/05/02 10:21:22;;;;;;;6.40;2.03;;;;;;;15.42;100.00;102706.78;4975142;28;20073;-44
2023/05/02 10:23:48;;;;;;;4.93;2.15;;;;;;;14.58;100.00;102699.75;4975173;28;20062;-48
2023/05/02 10:26:15;;;;;;;5.53;1.67;;;;;;;15.05;100.00;102721.75;4957775;28;20062;-43
2023/05/02 10:28:41;;;;;;;4.53;1.50;;;;;;;15.64;95.99;102700.06;4972637;28;20039;-43
2023/05/02 10:31:09;;;;;;;8.18;1.88;;;;;;;15.82;96.93;102692.59;4974544;28;20045;-43
2023/05/02 10:33:35;;;;;;;5.72;1.85;;;;;;;16.03;96.79;102698.22;4973877;28;20045;-44
2023/05/02 10:36:01;;;;;;;10.27;2.17;;;;;;;16.25;100.00;102693.25;4972508;28;20422;-43
2023/05/02 10:38:26;;;;;;;7.80;1.85;;;;;;;15.75;100.00;102708.69;4972869;28;20041;-46
2023/05/02 10:40:55;;;;;;;6.78;2.15;;;;;;;14.91;100.00;102706.16;4973431;28;20445;-43
2023/05/02 10:43:26;;;;;;;5.30;1.58;;;;;;;14.71;100.00;102713.59;4973267;28;20378;-45
2023/05/02 10:45:53;;;;;;;8.80;2.40;;;;;;;15.91;100.00;102695.88;4973597;28;20034;-46
2023/05/02 10:48:21;;;;;;;3.83;1.92;;;;;;;17.74;100.00;102717.22;4972708;28;20047;-45
2023/05/02 10:50:55;;;;;;;6.00;2.25;;;;;;;17.64;91.12;102714.88;4974845;28;20210;-44
2023/05/02 10:53:23;;;;;;;6.28;2.55;;;;;;;16.48;95.48;102727.16;4974673;28;20027;-45
2023/05/02 10:56:07;;;;;;;6.13;1.98;;;;;;;15.35;100.00;102714.91;4974410;28;20506;-46
2023/05/02 10:58:32;;;;;;;8.45;2.20;;;;;;;14.70;100.00;102664.16;4974227;28;20061;-44
2023/05/02 11:01:23;;;;;;;6.82;2.40;;;;;;;14.85;100.00;102724.84;4973412;28;20043;-45
2023/05/02 11:04:10;;;;;;;6.13;1.98;;;;;;;15.72;100.00;102734.44;4973664;28;20188;-46
2023/05/02 11:07:01;;;;;;;7.55;2.58;;;;;;;16.29;100.00;102732.97;4972393;28;20043;-42
2023/05/02 11:09:26;;;;;;;5.90;1.80;;;;;;;16.20;100.00;102733.19;4974178;28;20042;-44
2023/05/02 11:11:53;;;;;;;9.02;2.40;;;;;;;15.64;99.11;102728.44;4974485;28;20050;-42
2023/05/02 11:14:24;;;;;;;5.38;1.92;;;;;;;15.84;100.00;102726.16;4972927;28;20065;-48
2023/05/02 11:17:08;;;;;;;5.05;1.95;;;;;;;16.48;100.00;102729.81;4974029;28;20038;-42
2023/05/02 11:19:36;;;;;;;6.78;1.60;;;;;;;15.71;96.62;102735.31;4974180;28;20097;-43
2023/05/02 11:22:16;;;;;;;5.90;2.05;;;;;;;16.40;97.52;102740.69;4971896;28;20035;-43